createdAt,value
2018-04-19T00:00:02.027Z,6.00
2018-04-19T00:02:30.135Z,5.80
2018-04-19T00:04:58.228Z,5.70
2018-04-19T00:07:26.927Z,5.87
2018-04-19T00:09:55.011Z,6.27
2018-04-19T00:12:24.839Z,6.47
2018-04-19T00:14:52.950Z,6.37
2018-04-19T00:17:21.119Z,6.73
2018-04-19T00:19:49.244Z,6.17
2018-04-19T00:22:17.336Z,6.20
2018-04-19T00:24:45.486Z,6.97
2018-04-19T00:27:14.089Z,6.70
2018-04-19T00:29:42.195Z,6.10
2018-04-19T00:32:14.334Z,6.27
2018-04-19T00:34:42.507Z,6.23
2018-04-19T00:37:10.627Z,6.07
2018-04-19T00:39:38.729Z,6.67
2018-04-19T00:42:06.814Z,6.90
2018-04-19T00:44:34.926Z,6.77
2018-04-19T00:47:05.040Z,6.60
2018-04-19T00:49:33.874Z,6.60
2018-04-19T00:52:06.348Z,6.63
2018-04-19T00:54:34.554Z,6.97
2018-04-19T00:57:02.786Z,6.20
2018-04-19T00:59:30.887Z,6.33
2018-04-19T01:01:59.002Z,6.07
2018-04-19T01:04:27.113Z,6.50
2018-04-19T01:06:55.198Z,6.53
2018-04-19T01:09:23.771Z,6.50
2018-04-19T01:11:51.917Z,6.10
2018-04-19T01:14:20.800Z,6.27
2018-04-19T01:16:48.921Z,6.97
2018-04-19T01:19:17.012Z,7.00
2018-04-19T01:21:46.302Z,6.80
2018-04-19T01:24:16.681Z,7.17
2018-04-19T01:26:44.788Z,6.60
2018-04-19T01:29:12.934Z,6.47
2018-04-19T01:31:42.304Z,6.97
2018-04-19T01:34:11.169Z,7.27
2018-04-19T01:36:41.138Z,6.10
2018-04-19T01:39:09.265Z,6.63
2018-04-19T01:41:37.372Z,6.93
2018-04-19T01:44:05.483Z,6.30
2018-04-19T01:46:33.600Z,6.77
2018-04-19T01:49:02.467Z,6.37
2018-04-19T01:51:30.631Z,7.37
2018-04-19T01:53:58.719Z,6.50
2018-04-19T01:56:26.815Z,6.73
2018-04-19T01:58:54.912Z,6.63
2018-04-19T02:01:23.024Z,5.97
2018-04-19T02:03:51.127Z,6.63
2018-04-19T02:06:20.918Z,6.90
2018-04-19T02:08:49.046Z,6.97
2018-04-19T02:11:17.152Z,7.20
2018-04-19T02:13:45.250Z,7.67
2018-04-19T02:16:14.213Z,7.07
2018-04-19T02:18:47.508Z,7.30
2018-04-19T02:21:16.406Z,7.30
2018-04-19T02:23:44.522Z,7.40
2018-04-19T02:26:12.634Z,7.57
2018-04-19T02:28:40.737Z,7.37
2018-04-19T02:31:09.650Z,7.37
2018-04-19T02:33:38.597Z,6.57
2018-04-19T02:36:06.721Z,6.73
2018-04-19T02:38:34.817Z,7.00
2018-04-19T02:41:02.914Z,7.00
2018-04-19T02:43:31.056Z,6.77
2018-04-19T02:45:59.167Z,7.00
2018-04-19T02:48:27.831Z,6.90
2018-04-19T02:50:55.975Z,6.80
2018-04-19T02:53:24.099Z,7.30
2018-04-19T02:55:52.179Z,7.33
2018-04-19T02:58:20.323Z,6.80
2018-04-19T03:00:48.463Z,6.97
2018-04-19T03:03:17.681Z,7.33
2018-04-19T03:05:46.630Z,6.80
2018-04-19T03:08:15.475Z,7.17
2018-04-19T03:10:43.585Z,7.60
2018-04-19T03:13:11.700Z,7.33
2018-04-19T03:15:39.809Z,7.87
2018-04-19T03:18:07.926Z,7.13
2018-04-19T03:20:36.030Z,7.70
2018-04-19T03:23:08.659Z,6.97
2018-04-19T03:25:40.899Z,6.90
2018-04-19T03:28:09.077Z,7.17
2018-04-19T03:30:37.208Z,6.67
2018-04-19T03:33:05.337Z,6.53
2018-04-19T03:35:34.083Z,8.23
2018-04-19T03:38:02.322Z,7.57
2018-04-19T03:40:30.540Z,7.67
2018-04-19T03:42:58.921Z,7.27
2018-04-19T03:45:27.070Z,7.53
2018-04-19T03:47:55.257Z,7.67
2018-04-19T03:50:23.410Z,7.93
2018-04-19T03:52:51.510Z,7.53
2018-04-19T03:55:20.428Z,7.63
2018-04-19T03:57:48.534Z,7.30
2018-04-19T04:00:16.641Z,6.67
2018-04-19T04:02:44.742Z,7.40
2018-04-19T04:05:12.943Z,7.97
2018-04-19T04:07:41.063Z,7.03
2018-04-19T04:10:09.159Z,7.63
2018-04-19T04:12:37.292Z,7.60
2018-04-19T04:15:05.392Z,7.17
2018-04-19T04:17:51.269Z,7.70
2018-04-19T04:20:37.991Z,6.77
2018-04-19T04:23:40.485Z,6.67
2018-04-19T04:26:08.870Z,6.93
2018-04-19T04:28:36.955Z,7.70
2018-04-19T04:31:05.043Z,7.20
2018-04-19T04:33:33.162Z,6.63
2018-04-19T04:36:01.266Z,7.20
2018-04-19T04:38:29.504Z,7.30
2018-04-19T04:40:57.723Z,7.43
2018-04-19T04:43:27.309Z,7.47
2018-04-19T04:45:55.431Z,7.70
2018-04-19T04:48:23.529Z,8.13
2018-04-19T04:50:52.415Z,8.67
2018-04-19T04:53:20.572Z,9.03
2018-04-19T04:55:48.742Z,8.73
2018-04-19T04:58:16.915Z,9.37
2018-04-19T05:00:45.010Z,9.07
2018-04-19T05:03:13.169Z,9.43
2018-04-19T05:05:41.329Z,9.13
2018-04-19T05:08:10.227Z,9.47
2018-04-19T05:10:38.321Z,9.03
2018-04-19T05:13:06.473Z,10.30
2018-04-19T05:15:34.570Z,9.67
2018-04-19T05:18:02.671Z,9.87
2018-04-19T05:20:30.807Z,9.80
2018-04-19T05:22:58.934Z,10.50
2018-04-19T05:25:27.142Z,11.83
2018-04-19T05:27:55.537Z,11.40
2018-04-19T05:30:23.739Z,10.80
2018-04-19T05:32:51.848Z,11.67
2018-04-19T05:35:19.975Z,11.00
2018-04-19T05:37:48.090Z,11.43
2018-04-19T05:40:16.289Z,11.83
2018-04-19T05:42:45.233Z,13.53
2018-04-19T05:45:13.340Z,12.53
2018-04-19T05:47:41.433Z,13.83
2018-04-19T05:50:09.593Z,13.30
2018-04-19T05:52:37.727Z,13.10
2018-04-19T05:55:07.206Z,13.63
2018-04-19T05:57:35.551Z,14.03
2018-04-19T06:00:03.688Z,13.50
2018-04-19T06:02:31.804Z,13.17
2018-04-19T06:05:00.045Z,13.63
2018-04-19T06:07:28.199Z,12.77
2018-04-19T06:09:56.315Z,13.03
2018-04-19T06:12:24.431Z,13.20
2018-04-19T06:14:53.131Z,13.67
2018-04-19T06:17:21.378Z,12.43
2018-04-19T06:19:49.551Z,11.53
2018-04-19T06:22:17.803Z,12.03
2018-04-19T06:24:46.038Z,12.13
2018-04-19T06:27:14.225Z,10.30
2018-04-19T06:29:42.329Z,9.40
2018-04-19T06:32:10.468Z,8.30
2018-04-19T06:34:38.590Z,8.80
2018-04-19T06:37:06.706Z,7.90
2018-04-19T06:39:35.593Z,7.30
2018-04-19T06:42:03.712Z,6.60
2018-04-19T06:44:31.878Z,6.50
2018-04-19T06:47:00.565Z,6.40
2018-04-19T06:49:28.669Z,5.57
2018-04-19T06:51:56.757Z,6.20
2018-04-19T06:54:24.881Z,5.10
2018-04-19T06:56:52.991Z,4.63
2018-04-19T06:59:21.090Z,4.40
2018-04-19T07:01:49.196Z,4.30
2018-04-19T07:04:17.289Z,4.67
2018-04-19T07:06:45.392Z,3.73
2018-04-19T07:09:13.838Z,3.80
2018-04-19T07:11:41.963Z,4.60
2018-04-19T07:14:10.051Z,3.70
2018-04-19T07:16:42.345Z,3.90
2018-04-19T07:19:10.459Z,3.83
2018-04-19T07:21:38.706Z,4.03
2018-04-19T07:24:06.996Z,3.37
2018-04-19T07:26:35.135Z,3.47
2018-04-19T07:29:03.315Z,3.10
2018-04-19T07:31:31.467Z,3.33
2018-04-19T07:34:00.366Z,3.43
2018-04-19T07:36:28.477Z,3.30
2018-04-19T07:38:56.592Z,3.37
2018-04-19T07:41:24.700Z,2.77
2018-04-19T07:43:52.819Z,2.97
2018-04-19T07:46:20.917Z,2.67
2018-04-19T07:48:49.045Z,2.80
2018-04-19T07:51:17.159Z,3.17
2018-04-19T07:53:45.281Z,2.80
2018-04-19T07:56:13.398Z,2.87
2018-04-19T07:58:41.799Z,2.63
2018-04-19T08:01:09.908Z,3.00
2018-04-19T08:03:38.748Z,2.57
2018-04-19T08:06:07.060Z,2.30
2018-04-19T08:08:35.188Z,2.80
2018-04-19T08:11:03.300Z,2.60
2018-04-19T08:13:31.408Z,3.03
2018-04-19T08:15:59.502Z,2.70
2018-04-19T08:18:27.633Z,2.90
2018-04-19T08:20:55.740Z,2.60
2018-04-19T08:23:23.845Z,2.40
2018-04-19T08:25:51.953Z,2.87
2018-04-19T08:28:20.052Z,3.10
2018-04-19T08:30:48.163Z,2.93
2018-04-19T08:33:16.269Z,2.60
2018-04-19T08:35:44.967Z,2.77
2018-04-19T08:38:13.178Z,2.63
2018-04-19T08:40:41.274Z,2.83
2018-04-19T08:43:09.387Z,2.60
2018-04-19T08:45:37.497Z,2.60
2018-04-19T08:48:05.609Z,2.60
2018-04-19T08:50:37.547Z,2.70
2018-04-19T08:53:05.902Z,2.50
2018-04-19T08:55:34.021Z,2.40
2018-04-19T08:58:02.226Z,2.63
2018-04-19T09:00:30.451Z,2.83
2018-04-19T09:02:58.690Z,2.23
2018-04-19T09:05:26.796Z,2.57
2018-04-19T09:07:54.937Z,3.23
2018-04-19T09:10:23.033Z,2.83
2018-04-19T09:12:51.139Z,2.57
2018-04-19T09:15:19.312Z,2.87
2018-04-19T09:17:47.414Z,2.73
2018-04-19T09:20:15.532Z,2.97
2018-04-19T09:22:43.795Z,2.60
2018-04-19T09:25:11.993Z,2.70
2018-04-19T09:27:40.184Z,2.97
2018-04-19T09:30:08.413Z,2.53
2018-04-19T09:32:36.533Z,3.00
2018-04-19T09:35:04.654Z,2.90
2018-04-19T09:37:32.785Z,2.53
2018-04-19T09:40:00.879Z,2.70
2018-04-19T09:42:29.030Z,2.80
2018-04-19T09:44:57.130Z,2.37
2018-04-19T09:47:25.238Z,3.00
2018-04-19T09:49:53.354Z,3.00
2018-04-19T09:52:21.469Z,2.80
2018-04-19T09:54:49.631Z,2.77
2018-04-19T09:57:17.730Z,3.20
2018-04-19T09:59:45.852Z,2.87
2018-04-19T10:02:13.952Z,2.97
2018-04-19T10:04:42.072Z,2.27
2018-04-19T10:07:10.231Z,2.13
2018-04-19T10:09:38.348Z,2.70
2018-04-19T10:12:06.456Z,2.73
2018-04-19T10:14:35.430Z,2.80
2018-04-19T10:17:03.565Z,2.40
2018-04-19T10:19:31.661Z,2.43
2018-04-19T10:22:00.161Z,2.27
2018-04-19T10:24:28.254Z,2.60
2018-04-19T10:26:56.362Z,2.30
2018-04-19T10:29:24.480Z,2.40
2018-04-19T10:31:52.577Z,2.33
2018-04-19T10:34:20.759Z,2.30
2018-04-19T10:36:48.870Z,2.27
2018-04-19T10:39:17.052Z,2.23
2018-04-19T10:41:45.936Z,2.60
2018-04-19T10:44:14.050Z,2.40
2018-04-19T10:46:46.218Z,2.33
2018-04-19T10:49:14.361Z,2.57
2018-04-19T10:51:42.478Z,2.33
2018-04-19T10:54:10.627Z,2.40
2018-04-19T10:56:39.325Z,2.30
2018-04-19T10:59:07.423Z,2.37
2018-04-19T11:01:35.580Z,2.40
2018-04-19T11:04:03.703Z,2.80
2018-04-19T11:06:31.818Z,2.83
2018-04-19T11:09:00.382Z,2.67
2018-04-19T11:11:28.590Z,2.80
2018-04-19T11:13:56.822Z,2.87
2018-04-19T11:16:25.052Z,2.73
2018-04-19T11:18:53.291Z,2.63
2018-04-19T11:21:21.516Z,2.70
2018-04-19T11:23:49.692Z,2.60
2018-04-19T11:26:17.791Z,3.00
2018-04-19T11:28:46.412Z,2.60
2018-04-19T11:31:14.518Z,2.70
2018-04-19T11:33:42.664Z,2.80
2018-04-19T11:36:10.766Z,3.73
2018-04-19T11:38:38.860Z,4.70
2018-04-19T11:41:07.980Z,4.57
2018-04-19T11:43:36.078Z,4.27
2018-04-19T11:46:04.196Z,4.40
2018-04-19T11:48:32.520Z,5.07
2018-04-19T11:51:00.717Z,4.00
2018-04-19T11:53:28.865Z,4.30
2018-04-19T11:55:57.241Z,4.70
2018-04-19T11:58:25.623Z,3.90
2018-04-19T12:00:54.900Z,2.37
2018-04-19T12:03:23.878Z,2.70
2018-04-19T12:05:51.990Z,2.70
2018-04-19T12:08:20.108Z,2.30
2018-04-19T12:10:48.221Z,3.10
2018-04-19T12:13:16.311Z,3.13
2018-04-19T12:15:44.512Z,3.77
2018-04-19T12:18:12.612Z,3.00
2018-04-19T12:20:41.424Z,4.10
2018-04-19T12:23:09.607Z,3.70
2018-04-19T12:25:37.738Z,3.80
2018-04-19T12:28:06.599Z,4.50
2018-04-19T12:30:34.719Z,8.53
2018-04-19T12:33:02.831Z,3.70
2018-04-19T12:35:31.003Z,3.10
2018-04-19T12:37:59.194Z,2.37
2018-04-19T12:40:27.418Z,2.87
2018-04-19T12:42:55.648Z,2.93
2018-04-19T12:45:23.870Z,3.30
2018-04-19T12:47:52.056Z,3.33
2018-04-19T12:50:20.158Z,3.33
2018-04-19T12:52:50.682Z,3.07
2018-04-19T12:55:19.460Z,3.43
2018-04-19T12:57:47.552Z,3.73
2018-04-19T13:00:16.457Z,3.20
2018-04-19T13:02:44.562Z,3.50
2018-04-19T13:05:12.690Z,3.07
2018-04-19T13:07:40.839Z,3.20
2018-04-19T13:10:09.428Z,3.30
2018-04-19T13:12:37.580Z,3.50
2018-04-19T13:15:05.804Z,3.57
2018-04-19T13:17:34.014Z,3.77
2018-04-19T13:20:02.348Z,3.53
2018-04-19T13:22:30.546Z,3.53
2018-04-19T13:24:58.689Z,3.57
2018-04-19T13:27:26.798Z,3.47
2018-04-19T13:29:55.382Z,3.73
2018-04-19T13:32:24.872Z,4.00
2018-04-19T13:34:52.980Z,3.63
2018-04-19T13:37:21.086Z,3.63
2018-04-19T13:39:49.202Z,3.50
2018-04-19T13:42:18.605Z,4.03
2018-04-19T13:44:46.735Z,3.70
2018-04-19T13:47:14.998Z,4.50
2018-04-19T13:49:43.207Z,4.67
2018-04-19T13:52:11.341Z,3.90
2018-04-19T13:54:39.441Z,4.27
2018-04-19T13:57:07.638Z,4.27
2018-04-19T13:59:36.518Z,4.00
2018-04-19T14:02:04.656Z,3.50
2018-04-19T14:04:32.846Z,4.33
2018-04-19T14:07:00.942Z,3.80
2018-04-19T14:09:29.053Z,3.60
2018-04-19T14:11:57.172Z,3.77
2018-04-19T14:14:26.305Z,3.57
2018-04-19T14:16:55.058Z,3.17
2018-04-19T14:19:23.866Z,3.63
2018-04-19T14:21:51.971Z,3.50
2018-04-19T14:24:20.078Z,3.93
2018-04-19T14:26:48.197Z,4.10
2018-04-19T14:29:17.056Z,3.60
2018-04-19T14:31:45.188Z,3.40
2018-04-19T14:34:13.320Z,2.87
2018-04-19T14:36:41.443Z,3.07
2018-04-19T14:39:09.562Z,3.10
2018-04-19T14:41:37.673Z,3.03
2018-04-19T14:44:05.789Z,3.07
2018-04-19T14:46:37.635Z,2.60
2018-04-19T14:49:05.730Z,2.63
2018-04-19T14:51:33.892Z,2.47
2018-04-19T14:54:02.009Z,2.80
2018-04-19T14:56:30.106Z,2.70
2018-04-19T14:58:58.250Z,3.30
2018-04-19T15:01:26.321Z,2.97
2018-04-19T15:03:54.926Z,3.27
2018-04-19T15:06:23.737Z,2.60
2018-04-19T15:08:51.874Z,3.10
2018-04-19T15:11:20.018Z,2.80
2018-04-19T15:13:48.892Z,2.57
2018-04-19T15:16:17.010Z,2.80
2018-04-19T15:18:45.139Z,2.70
2018-04-19T15:34:08.591Z,2.73
2018-04-19T15:49:31.744Z,2.70
2018-04-19T15:51:59.857Z,2.37
2018-04-19T15:54:27.977Z,2.37
2018-04-19T15:56:56.102Z,2.60
2018-04-19T15:59:24.198Z,2.90
2018-04-19T16:01:52.308Z,2.50
2018-04-19T16:04:20.832Z,2.50
2018-04-19T16:06:48.955Z,2.83
2018-04-19T16:09:17.087Z,2.53
2018-04-19T16:11:52.855Z,2.50
2018-04-19T16:14:17.805Z,2.67
2018-04-19T16:16:45.907Z,3.10
2018-04-19T16:19:14.020Z,3.80
2018-04-19T16:21:42.101Z,2.40
2018-04-19T16:24:10.221Z,2.53
2018-04-19T16:26:38.341Z,2.30
2018-04-19T16:29:06.463Z,2.37
2018-04-19T16:31:34.573Z,2.50
2018-04-19T16:34:02.685Z,2.53
2018-04-19T16:36:34.682Z,2.33
2018-04-19T16:39:04.159Z,2.10
2018-04-19T16:41:32.303Z,1.80
2018-04-19T16:44:00.483Z,1.80
2018-04-19T16:46:28.759Z,2.13
2018-04-19T16:48:56.918Z,1.97
2018-04-19T16:51:25.116Z,2.20
2018-04-19T16:53:53.216Z,2.10
2018-04-19T16:56:21.315Z,2.33
2018-04-19T16:58:50.183Z,2.10
2018-04-19T17:01:18.276Z,2.13
2018-04-19T17:03:46.427Z,2.30
2018-04-19T17:06:14.677Z,1.87
2018-04-19T17:08:42.827Z,2.70
2018-04-19T17:11:11.621Z,2.30
2018-04-19T17:13:39.761Z,2.53
2018-04-19T17:16:07.889Z,2.53
2018-04-19T17:18:36.000Z,2.43
2018-04-19T17:21:04.480Z,2.13
2018-04-19T17:23:32.591Z,2.40
2018-04-19T17:26:00.705Z,2.47
2018-04-19T17:28:28.957Z,2.33
2018-04-19T17:30:57.830Z,2.20
2018-04-19T17:33:25.951Z,2.30
2018-04-19T17:35:54.123Z,2.30
2018-04-19T17:38:22.247Z,2.30
2018-04-19T17:40:50.368Z,2.50
2018-04-19T17:43:18.495Z,2.67
2018-04-19T17:45:46.588Z,2.80
2018-04-19T17:48:14.706Z,2.40
2018-04-19T17:50:42.833Z,2.77
2018-04-19T17:53:10.940Z,2.50
2018-04-19T17:55:39.883Z,2.90
2018-04-19T17:58:07.995Z,2.20
2018-04-19T18:00:36.132Z,2.10
2018-04-19T18:03:05.017Z,2.90
2018-04-19T18:05:33.141Z,2.03
2018-04-19T18:08:01.261Z,2.40
2018-04-19T18:10:29.373Z,2.40
2018-04-19T18:12:57.517Z,2.43
2018-04-19T18:15:26.372Z,2.10
2018-04-19T18:17:54.482Z,2.30
2018-04-19T18:20:23.616Z,2.47
2018-04-19T18:22:51.742Z,2.13
2018-04-19T18:25:19.829Z,2.37
2018-04-19T18:27:47.951Z,2.40
2018-04-19T18:30:16.989Z,2.37
2018-04-19T18:32:45.116Z,2.50
2018-04-19T18:35:13.222Z,2.47
2018-04-19T18:37:42.076Z,2.70
2018-04-19T18:40:10.209Z,2.50
2018-04-19T18:42:38.360Z,2.60
2018-04-19T18:45:06.485Z,2.27
2018-04-19T18:47:34.606Z,2.57
2018-04-19T18:50:03.479Z,2.40
2018-04-19T18:52:31.586Z,2.40
2018-04-19T18:54:59.716Z,1.93
2018-04-19T18:57:27.923Z,2.80
2018-04-19T18:59:56.019Z,2.47
2018-04-19T19:02:24.183Z,2.40
2018-04-19T19:04:53.079Z,2.50
2018-04-19T19:07:21.468Z,2.70
2018-04-19T19:09:49.687Z,2.80
2018-04-19T19:12:18.306Z,2.67
2018-04-19T19:14:46.499Z,2.70
2018-04-19T19:17:32.340Z,2.33
2018-04-19T19:20:12.790Z,2.57
2018-04-19T19:22:40.963Z,2.30
2018-04-19T19:25:09.079Z,2.27
2018-04-19T19:27:37.232Z,2.40
2018-04-19T19:30:05.571Z,2.40
2018-04-19T19:32:33.699Z,2.67
2018-04-19T19:35:01.814Z,2.83
2018-04-19T19:37:30.269Z,2.70
2018-04-19T19:39:58.369Z,2.53
2018-04-19T19:42:26.483Z,2.93
2018-04-19T19:44:54.949Z,2.43
2018-04-19T19:47:23.093Z,2.50
2018-04-19T19:49:52.047Z,2.57
2018-04-19T19:52:20.140Z,2.73
2018-04-19T19:54:48.258Z,2.73
2018-04-19T19:57:16.354Z,2.77
2018-04-19T19:59:44.473Z,2.57
2018-04-19T20:02:12.562Z,2.60
2018-04-19T20:04:41.335Z,2.87
2018-04-19T20:07:09.913Z,2.63
2018-04-19T20:09:38.025Z,3.00
2018-04-19T20:12:07.405Z,2.77
2018-04-19T20:14:35.599Z,2.93
2018-04-19T20:17:03.801Z,2.73
2018-04-19T20:19:31.912Z,2.80
2018-04-19T20:22:00.051Z,2.77
2018-04-19T20:24:28.642Z,3.00
2018-04-19T20:26:56.776Z,2.87
2018-04-19T20:29:24.941Z,2.70
2018-04-19T20:31:53.035Z,3.20
2018-04-19T20:34:21.167Z,3.00
2018-04-19T20:36:49.271Z,2.70
2018-04-19T20:39:18.150Z,3.00
2018-04-19T20:41:46.301Z,3.40
2018-04-19T20:44:14.449Z,3.40
2018-04-19T20:46:43.433Z,2.70
2018-04-19T20:49:11.566Z,3.00
2018-04-19T20:51:39.683Z,2.60
2018-04-19T20:54:07.818Z,2.97
2018-04-19T20:56:41.031Z,2.73
2018-04-19T20:59:09.135Z,2.80
2018-04-19T21:01:37.263Z,3.00
2018-04-19T21:04:05.454Z,3.53
2018-04-19T21:06:33.682Z,3.10
2018-04-19T21:09:02.771Z,2.80
2018-04-19T21:11:30.879Z,3.20
2018-04-19T21:13:58.988Z,2.97
2018-04-19T21:16:27.133Z,2.90
2018-04-19T21:18:55.240Z,2.63
2018-04-19T21:21:23.362Z,2.80
2018-04-19T21:23:53.019Z,2.80
2018-04-19T21:26:21.125Z,3.10
2018-04-19T21:28:50.893Z,3.40
2018-04-19T21:31:27.215Z,2.70
2018-04-19T21:33:55.350Z,2.93
2018-04-19T21:36:23.503Z,2.67
2018-04-19T21:38:51.628Z,2.60
2018-04-19T21:41:19.842Z,2.50
2018-04-19T21:43:47.975Z,2.70
2018-04-19T21:46:20.175Z,2.87
2018-04-19T21:48:48.299Z,2.70
2018-04-19T21:51:16.391Z,2.77
2018-04-19T21:53:44.503Z,3.00
2018-04-19T21:56:12.595Z,2.50
2018-04-19T21:58:40.711Z,3.20
2018-04-19T22:01:08.812Z,3.00
2018-04-19T22:03:37.029Z,2.67
2018-04-19T22:06:05.320Z,2.80
2018-04-19T22:08:33.483Z,3.20
2018-04-19T22:11:02.347Z,3.20
2018-04-19T22:13:30.455Z,3.13
2018-04-19T22:15:58.566Z,3.00
2018-04-19T22:18:26.670Z,2.90
2018-04-19T22:20:54.792Z,3.10
2018-04-19T22:23:22.975Z,2.63
2018-04-19T22:25:52.715Z,2.70
2018-04-19T22:28:20.830Z,2.50
2018-04-19T22:30:48.963Z,3.17
2018-04-19T22:33:17.086Z,3.00
2018-04-19T22:35:45.180Z,3.50
2018-04-19T22:38:14.786Z,3.60
2018-04-19T22:40:42.884Z,2.97
2018-04-19T22:43:11.002Z,2.97
2018-04-19T22:45:39.111Z,3.27
2018-04-19T22:48:07.227Z,3.00
2018-04-19T22:50:35.326Z,3.13
2018-04-19T22:53:05.167Z,2.97
2018-04-19T22:55:33.281Z,3.27
2018-04-19T22:58:01.412Z,3.50
2018-04-19T23:00:29.633Z,3.07
2018-04-19T23:02:57.834Z,2.97
2018-04-19T23:05:26.066Z,3.23
2018-04-19T23:07:54.285Z,3.20
2018-04-19T23:10:22.410Z,2.87
2018-04-19T23:12:50.529Z,2.80
2018-04-19T23:15:19.129Z,3.40
2018-04-19T23:17:47.317Z,2.97
2018-04-19T23:20:15.429Z,3.03
2018-04-19T23:22:43.553Z,3.03
2018-04-19T23:25:11.667Z,3.00
2018-04-19T23:27:39.797Z,3.17
2018-04-19T23:30:09.726Z,3.20
2018-04-19T23:32:37.837Z,2.90
2018-04-19T23:35:05.960Z,3.47
2018-04-19T23:37:34.084Z,2.67
2018-04-19T23:40:02.921Z,2.57
2018-04-19T23:42:31.012Z,3.10
2018-04-19T23:44:59.122Z,2.87
2018-04-19T23:47:27.268Z,3.23
2018-04-19T23:49:55.361Z,2.87
2018-04-19T23:52:23.447Z,3.30
2018-04-19T23:54:51.564Z,3.10
2018-04-19T23:57:19.655Z,3.43
2018-04-19T23:59:47.761Z,2.80
